sensor_id;sensor_type;location;lat;lon;timestamp;P1;durP1;ratioP1;P2;durP2;ratioP2
24216;SDS011;12356;49.386;8.688;2023-03-14T00:02:23;1.67;;;0.80;;
24216;SDS011;12356;49.386;8.688;2023-03-14T00:04:54;2.25;;;0.70;;
24216;SDS011;12356;49.386;8.688;2023-03-14T00:07:26;2.42;;;0.90;;
24216;SDS011;12356;49.386;8.688;2023-03-14T00:09:58;2.00;;;0.88;;
24216;SDS011;12356;49.386;8.688;2023-03-14T00:12:28;1.20;;;0.85;;
24216;SDS011;12356;49.386;8.688;2023-03-14T00:14:59;1.13;;;0.88;;
24216;SDS011;12356;49.386;8.688;2023-03-14T00:17:30;1.85;;;0.77;;
24216;SDS011;12356;49.386;8.688;2023-03-14T00:20:01;2.55;;;0.80;;
24216;SDS011;12356;49.386;8.688;2023-03-14T00:22:38;3.42;;;1.05;;
24216;SDS011;12356;49.386;8.688;2023-03-14T00:25:09;2.08;;;1.00;;
24216;SDS011;12356;49.386;8.688;2023-03-14T00:27:41;2.22;;;1.10;;
24216;SDS011;12356;49.386;8.688;2023-03-14T00:30:11;3.00;;;1.00;;
24216;SDS011;12356;49.386;8.688;2023-03-14T00:32:42;1.73;;;0.82;;
24216;SDS011;12356;49.386;8.688;2023-03-14T00:35:13;2.17;;;0.60;;
24216;SDS011;12356;49.386;8.688;2023-03-14T00:37:44;2.72;;;0.80;;
24216;SDS011;12356;49.386;8.688;2023-03-14T00:40:14;1.98;;;0.77;;
24216;SDS011;12356;49.386;8.688;2023-03-14T00:42:45;1.52;;;0.85;;
24216;SDS011;12356;49.386;8.688;2023-03-14T00:45:16;2.90;;;1.00;;
24216;SDS011;12356;49.386;8.688;2023-03-14T00:47:46;1.58;;;0.60;;
24216;SDS011;12356;49.386;8.688;2023-03-14T00:50:17;1.35;;;0.70;;
24216;SDS011;12356;49.386;8.688;2023-03-14T00:52:47;1.42;;;0.73;;
24216;SDS011;12356;49.386;8.688;2023-03-14T00:55:18;0.73;;;0.70;;
24216;SDS011;12356;49.386;8.688;2023-03-14T00:57:51;2.05;;;0.70;;
24216;SDS011;12356;49.386;8.688;2023-03-14T01:00:23;1.77;;;0.80;;
24216;SDS011;12356;49.386;8.688;2023-03-14T01:02:53;1.33;;;0.70;;
24216;SDS011;12356;49.386;8.688;2023-03-14T01:05:24;1.48;;;0.60;;
24216;SDS011;12356;49.386;8.688;2023-03-14T01:07:54;1.55;;;0.80;;
24216;SDS011;12356;49.386;8.688;2023-03-14T01:10:25;2.22;;;0.80;;
24216;SDS011;12356;49.386;8.688;2023-03-14T01:12:56;1.75;;;0.70;;
24216;SDS011;12356;49.386;8.688;2023-03-14T01:15:27;1.40;;;0.70;;
24216;SDS011;12356;49.386;8.688;2023-03-14T01:17:57;1.92;;;0.98;;
24216;SDS011;12356;49.386;8.688;2023-03-14T01:20:28;2.05;;;0.77;;
24216;SDS011;12356;49.386;8.688;2023-03-14T01:22:58;1.13;;;0.75;;
24216;SDS011;12356;49.386;8.688;2023-03-14T01:25:29;2.42;;;0.82;;
24216;SDS011;12356;49.386;8.688;2023-03-14T01:28:00;3.63;;;0.70;;
24216;SDS011;12356;49.386;8.688;2023-03-14T01:30:30;3.72;;;0.90;;
24216;SDS011;12356;49.386;8.688;2023-03-14T01:33:01;1.92;;;0.90;;
24216;SDS011;12356;49.386;8.688;2023-03-14T01:35:31;3.25;;;0.75;;
24216;SDS011;12356;49.386;8.688;2023-03-14T01:38:02;2.30;;;1.02;;
24216;SDS011;12356;49.386;8.688;2023-03-14T01:40:32;1.67;;;0.73;;
24216;SDS011;12356;49.386;8.688;2023-03-14T01:43:12;2.28;;;0.73;;
24216;SDS011;12356;49.386;8.688;2023-03-14T01:48:38;2.53;;;0.80;;
24216;SDS011;12356;49.386;8.688;2023-03-14T01:54:25;1.52;;;0.60;;
24216;SDS011;12356;49.386;8.688;2023-03-14T01:56:57;2.00;;;0.70;;
24216;SDS011;12356;49.386;8.688;2023-03-14T01:59:34;1.02;;;0.70;;
24216;SDS011;12356;49.386;8.688;2023-03-14T02:02:07;2.50;;;0.90;;
24216;SDS011;12356;49.386;8.688;2023-03-14T02:04:41;3.35;;;0.73;;
24216;SDS011;12356;49.386;8.688;2023-03-14T02:09:49;2.55;;;0.80;;
24216;SDS011;12356;49.386;8.688;2023-03-14T02:12:21;2.05;;;0.82;;
24216;SDS011;12356;49.386;8.688;2023-03-14T02:14:52;2.80;;;0.80;;
24216;SDS011;12356;49.386;8.688;2023-03-14T02:17:22;3.03;;;0.85;;
24216;SDS011;12356;49.386;8.688;2023-03-14T02:22:25;1.48;;;0.80;;
24216;SDS011;12356;49.386;8.688;2023-03-14T02:27:44;2.85;;;0.82;;
24216;SDS011;12356;49.386;8.688;2023-03-14T02:30:18;1.00;;;0.90;;
24216;SDS011;12356;49.386;8.688;2023-03-14T02:33:16;1.98;;;0.70;;
24216;SDS011;12356;49.386;8.688;2023-03-14T02:36:02;2.35;;;0.90;;
24216;SDS011;12356;49.386;8.688;2023-03-14T02:41:12;3.60;;;1.00;;
24216;SDS011;12356;49.386;8.688;2023-03-14T02:43:42;1.67;;;0.88;;
24216;SDS011;12356;49.386;8.688;2023-03-14T02:46:14;2.30;;;0.80;;
24216;SDS011;12356;49.386;8.688;2023-03-14T02:49:02;2.55;;;1.05;;
24216;SDS011;12356;49.386;8.688;2023-03-14T02:51:34;2.75;;;0.90;;
24216;SDS011;12356;49.386;8.688;2023-03-14T02:54:05;2.85;;;0.95;;
24216;SDS011;12356;49.386;8.688;2023-03-14T02:56:36;2.25;;;0.93;;
24216;SDS011;12356;49.386;8.688;2023-03-14T02:59:07;4.45;;;0.95;;
24216;SDS011;12356;49.386;8.688;2023-03-14T03:01:37;1.88;;;0.77;;
24216;SDS011;12356;49.386;8.688;2023-03-14T03:04:08;2.95;;;1.00;;
24216;SDS011;12356;49.386;8.688;2023-03-14T03:06:38;2.15;;;0.70;;
24216;SDS011;12356;49.386;8.688;2023-03-14T03:09:09;2.47;;;0.88;;
24216;SDS011;12356;49.386;8.688;2023-03-14T03:11:39;2.10;;;0.98;;
24216;SDS011;12356;49.386;8.688;2023-03-14T03:14:10;2.10;;;0.90;;
24216;SDS011;12356;49.386;8.688;2023-03-14T03:16:40;2.40;;;1.00;;
24216;SDS011;12356;49.386;8.688;2023-03-14T03:19:11;2.30;;;0.95;;
24216;SDS011;12356;49.386;8.688;2023-03-14T03:21:43;3.20;;;1.10;;
24216;SDS011;12356;49.386;8.688;2023-03-14T03:24:14;1.70;;;0.75;;
24216;SDS011;12356;49.386;8.688;2023-03-14T03:26:45;2.22;;;0.85;;
24216;SDS011;12356;49.386;8.688;2023-03-14T03:29:15;3.55;;;0.90;;
24216;SDS011;12356;49.386;8.688;2023-03-14T03:31:46;2.08;;;0.80;;
24216;SDS011;12356;49.386;8.688;2023-03-14T03:34:17;2.65;;;0.75;;
24216;SDS011;12356;49.386;8.688;2023-03-14T03:36:47;1.88;;;0.90;;
24216;SDS011;12356;49.386;8.688;2023-03-14T03:39:18;3.65;;;1.08;;
24216;SDS011;12356;49.386;8.688;2023-03-14T03:41:49;3.58;;;1.08;;
24216;SDS011;12356;49.386;8.688;2023-03-14T03:44:19;2.97;;;0.85;;
24216;SDS011;12356;49.386;8.688;2023-03-14T03:46:50;1.75;;;1.00;;
24216;SDS011;12356;49.386;8.688;2023-03-14T03:49:20;5.00;;;0.88;;
24216;SDS011;12356;49.386;8.688;2023-03-14T03:51:51;2.05;;;0.80;;
24216;SDS011;12356;49.386;8.688;2023-03-14T03:54:22;2.22;;;0.90;;
24216;SDS011;12356;49.386;8.688;2023-03-14T03:56:52;1.65;;;0.77;;
24216;SDS011;12356;49.386;8.688;2023-03-14T03:59:23;2.88;;;1.00;;
24216;SDS011;12356;49.386;8.688;2023-03-14T04:01:54;2.08;;;0.85;;
24216;SDS011;12356;49.386;8.688;2023-03-14T04:04:24;1.77;;;0.85;;
24216;SDS011;12356;49.386;8.688;2023-03-14T04:06:55;1.35;;;0.80;;
24216;SDS011;12356;49.386;8.688;2023-03-14T04:09:25;1.90;;;0.73;;
24216;SDS011;12356;49.386;8.688;2023-03-14T04:11:56;2.80;;;0.82;;
24216;SDS011;12356;49.386;8.688;2023-03-14T04:14:26;2.55;;;0.90;;
24216;SDS011;12356;49.386;8.688;2023-03-14T04:16:57;2.50;;;0.90;;
24216;SDS011;12356;49.386;8.688;2023-03-14T04:19:28;2.58;;;1.00;;
24216;SDS011;12356;49.386;8.688;2023-03-14T04:21:58;3.78;;;1.02;;
24216;SDS011;12356;49.386;8.688;2023-03-14T04:24:29;1.92;;;0.90;;
24216;SDS011;12356;49.386;8.688;2023-03-14T04:26:59;3.88;;;0.95;;
24216;SDS011;12356;49.386;8.688;2023-03-14T04:29:30;2.25;;;0.82;;
24216;SDS011;12356;49.386;8.688;2023-03-14T04:32:00;2.83;;;0.90;;
24216;SDS011;12356;49.386;8.688;2023-03-14T04:34:31;1.95;;;0.75;;
24216;SDS011;12356;49.386;8.688;2023-03-14T04:37:01;2.65;;;0.80;;
24216;SDS011;12356;49.386;8.688;2023-03-14T04:39:32;1.92;;;0.93;;
24216;SDS011;12356;49.386;8.688;2023-03-14T04:42:03;3.50;;;0.88;;
24216;SDS011;12356;49.386;8.688;2023-03-14T04:44:33;3.28;;;0.80;;
24216;SDS011;12356;49.386;8.688;2023-03-14T04:47:04;2.72;;;0.85;;
24216;SDS011;12356;49.386;8.688;2023-03-14T04:49:34;2.38;;;0.90;;
24216;SDS011;12356;49.386;8.688;2023-03-14T04:52:05;5.32;;;0.85;;
24216;SDS011;12356;49.386;8.688;2023-03-14T04:54:35;3.88;;;0.82;;
24216;SDS011;12356;49.386;8.688;2023-03-14T04:57:06;3.15;;;0.70;;
24216;SDS011;12356;49.386;8.688;2023-03-14T04:59:36;2.67;;;0.70;;
24216;SDS011;12356;49.386;8.688;2023-03-14T05:02:07;4.35;;;0.88;;
24216;SDS011;12356;49.386;8.688;2023-03-14T05:04:38;2.83;;;0.80;;
24216;SDS011;12356;49.386;8.688;2023-03-14T05:07:09;4.47;;;1.05;;
24216;SDS011;12356;49.386;8.688;2023-03-14T05:09:40;2.22;;;0.77;;
24216;SDS011;12356;49.386;8.688;2023-03-14T05:12:10;3.85;;;0.80;;
24216;SDS011;12356;49.386;8.688;2023-03-14T05:14:41;3.28;;;0.80;;
24216;SDS011;12356;49.386;8.688;2023-03-14T05:17:11;4.95;;;0.82;;
24216;SDS011;12356;49.386;8.688;2023-03-14T05:19:44;5.53;;;1.20;;
24216;SDS011;12356;49.386;8.688;2023-03-14T05:22:14;1.95;;;0.82;;
24216;SDS011;12356;49.386;8.688;2023-03-14T05:24:45;3.90;;;0.90;;
24216;SDS011;12356;49.386;8.688;2023-03-14T05:27:15;5.43;;;0.77;;
24216;SDS011;12356;49.386;8.688;2023-03-14T05:29:46;3.00;;;0.90;;
24216;SDS011;12356;49.386;8.688;2023-03-14T05:32:17;3.47;;;1.05;;
24216;SDS011;12356;49.386;8.688;2023-03-14T05:34:48;5.07;;;1.17;;
24216;SDS011;12356;49.386;8.688;2023-03-14T05:37:19;2.85;;;0.80;;
24216;SDS011;12356;49.386;8.688;2023-03-14T05:39:50;5.75;;;0.70;;
24216;SDS011;12356;49.386;8.688;2023-03-14T05:42:20;3.35;;;1.00;;
24216;SDS011;12356;49.386;8.688;2023-03-14T05:44:51;2.55;;;0.80;;
24216;SDS011;12356;49.386;8.688;2023-03-14T05:47:21;3.75;;;0.88;;
24216;SDS011;12356;49.386;8.688;2023-03-14T05:49:52;4.10;;;0.90;;
24216;SDS011;12356;49.386;8.688;2023-03-14T05:52:23;3.95;;;0.73;;
24216;SDS011;12356;49.386;8.688;2023-03-14T05:54:53;3.75;;;0.90;;
24216;SDS011;12356;49.386;8.688;2023-03-14T05:57:24;5.45;;;0.95;;
24216;SDS011;12356;49.386;8.688;2023-03-14T05:59:55;3.15;;;1.00;;
24216;SDS011;12356;49.386;8.688;2023-03-14T06:02:25;4.30;;;0.82;;
24216;SDS011;12356;49.386;8.688;2023-03-14T06:04:56;2.58;;;0.93;;
24216;SDS011;12356;49.386;8.688;2023-03-14T06:07:26;3.17;;;0.90;;
24216;SDS011;12356;49.386;8.688;2023-03-14T06:09:57;1.98;;;0.70;;
24216;SDS011;12356;49.386;8.688;2023-03-14T06:12:28;3.58;;;0.75;;
24216;SDS011;12356;49.386;8.688;2023-03-14T06:14:58;3.17;;;0.82;;
24216;SDS011;12356;49.386;8.688;2023-03-14T06:17:29;4.00;;;0.90;;
24216;SDS011;12356;49.386;8.688;2023-03-14T06:20:00;4.60;;;0.82;;
24216;SDS011;12356;49.386;8.688;2023-03-14T06:22:30;5.40;;;1.10;;
24216;SDS011;12356;49.386;8.688;2023-03-14T06:25:01;2.25;;;0.70;;
24216;SDS011;12356;49.386;8.688;2023-03-14T06:27:31;3.58;;;0.90;;
24216;SDS011;12356;49.386;8.688;2023-03-14T06:30:02;3.97;;;0.75;;
24216;SDS011;12356;49.386;8.688;2023-03-14T06:32:33;3.80;;;1.10;;
24216;SDS011;12356;49.386;8.688;2023-03-14T06:35:04;3.53;;;0.90;;
24216;SDS011;12356;49.386;8.688;2023-03-14T06:37:35;3.90;;;0.80;;
24216;SDS011;12356;49.386;8.688;2023-03-14T06:40:05;4.38;;;0.90;;
24216;SDS011;12356;49.386;8.688;2023-03-14T06:42:37;2.65;;;0.88;;
24216;SDS011;12356;49.386;8.688;2023-03-14T06:45:07;3.30;;;0.80;;
24216;SDS011;12356;49.386;8.688;2023-03-14T06:47:39;3.58;;;1.08;;
24216;SDS011;12356;49.386;8.688;2023-03-14T06:50:09;2.72;;;0.70;;
24216;SDS011;12356;49.386;8.688;2023-03-14T06:52:41;2.67;;;0.75;;
24216;SDS011;12356;49.386;8.688;2023-03-14T06:55:16;1.88;;;0.80;;
24216;SDS011;12356;49.386;8.688;2023-03-14T06:57:47;7.05;;;1.02;;
24216;SDS011;12356;49.386;8.688;2023-03-14T07:00:17;5.22;;;0.90;;
24216;SDS011;12356;49.386;8.688;2023-03-14T07:02:48;3.10;;;0.70;;
24216;SDS011;12356;49.386;8.688;2023-03-14T07:05:19;3.10;;;0.80;;
24216;SDS011;12356;49.386;8.688;2023-03-14T07:07:49;3.38;;;0.80;;
24216;SDS011;12356;49.386;8.688;2023-03-14T07:10:20;4.90;;;0.93;;
24216;SDS011;12356;49.386;8.688;2023-03-14T07:12:50;2.78;;;0.80;;
24216;SDS011;12356;49.386;8.688;2023-03-14T07:15:22;4.47;;;1.08;;
24216;SDS011;12356;49.386;8.688;2023-03-14T07:17:53;2.67;;;0.75;;
24216;SDS011;12356;49.386;8.688;2023-03-14T07:20:23;3.28;;;0.93;;
24216;SDS011;12356;49.386;8.688;2023-03-14T07:22:54;2.30;;;0.63;;
24216;SDS011;12356;49.386;8.688;2023-03-14T07:25:24;4.70;;;1.00;;
24216;SDS011;12356;49.386;8.688;2023-03-14T07:27:55;2.63;;;1.02;;
24216;SDS011;12356;49.386;8.688;2023-03-14T07:30:26;2.70;;;0.70;;
24216;SDS011;12356;49.386;8.688;2023-03-14T07:32:56;4.22;;;0.85;;
24216;SDS011;12356;49.386;8.688;2023-03-14T07:35:27;1.77;;;0.80;;
24216;SDS011;12356;49.386;8.688;2023-03-14T07:37:58;3.30;;;0.90;;
24216;SDS011;12356;49.386;8.688;2023-03-14T07:40:28;3.53;;;0.90;;
24216;SDS011;12356;49.386;8.688;2023-03-14T07:42:59;4.75;;;1.10;;
24216;SDS011;12356;49.386;8.688;2023-03-14T07:45:29;5.13;;;0.80;;
24216;SDS011;12356;49.386;8.688;2023-03-14T07:48:00;1.80;;;0.70;;
24216;SDS011;12356;49.386;8.688;2023-03-14T07:50:32;3.40;;;0.90;;
24216;SDS011;12356;49.386;8.688;2023-03-14T07:53:02;3.40;;;0.88;;
24216;SDS011;12356;49.386;8.688;2023-03-14T07:55:33;5.30;;;0.90;;
24216;SDS011;12356;49.386;8.688;2023-03-14T07:58:03;4.13;;;0.80;;
24216;SDS011;12356;49.386;8.688;2023-03-14T08:00:34;3.28;;;0.70;;
24216;SDS011;12356;49.386;8.688;2023-03-14T08:03:04;2.97;;;0.70;;
24216;SDS011;12356;49.386;8.688;2023-03-14T08:05:35;4.32;;;0.88;;
24216;SDS011;12356;49.386;8.688;2023-03-14T08:08:07;4.35;;;1.00;;
24216;SDS011;12356;49.386;8.688;2023-03-14T08:10:37;2.72;;;0.90;;
24216;SDS011;12356;49.386;8.688;2023-03-14T08:13:08;1.38;;;0.57;;
24216;SDS011;12356;49.386;8.688;2023-03-14T08:15:39;3.13;;;1.02;;
24216;SDS011;12356;49.386;8.688;2023-03-14T08:18:10;4.28;;;0.60;;
24216;SDS011;12356;49.386;8.688;2023-03-14T08:20:41;2.28;;;0.75;;
24216;SDS011;12356;49.386;8.688;2023-03-14T08:23:11;3.30;;;0.80;;
24216;SDS011;12356;49.386;8.688;2023-03-14T08:25:42;2.33;;;0.50;;
24216;SDS011;12356;49.386;8.688;2023-03-14T08:28:13;2.35;;;0.65;;
24216;SDS011;12356;49.386;8.688;2023-03-14T08:30:43;0.80;;;0.43;;
24216;SDS011;12356;49.386;8.688;2023-03-14T08:33:14;1.98;;;0.57;;
24216;SDS011;12356;49.386;8.688;2023-03-14T08:35:45;2.47;;;0.60;;
24216;SDS011;12356;49.386;8.688;2023-03-14T08:38:15;4.40;;;1.27;;
24216;SDS011;12356;49.386;8.688;2023-03-14T08:40:46;2.92;;;0.60;;
24216;SDS011;12356;49.386;8.688;2023-03-14T08:43:16;1.55;;;0.55;;
24216;SDS011;12356;49.386;8.688;2023-03-14T08:45:47;4.57;;;0.70;;
24216;SDS011;12356;49.386;8.688;2023-03-14T08:48:17;2.65;;;0.60;;
24216;SDS011;12356;49.386;8.688;2023-03-14T08:50:49;1.77;;;0.60;;
24216;SDS011;12356;49.386;8.688;2023-03-14T08:53:19;2.65;;;0.47;;
24216;SDS011;12356;49.386;8.688;2023-03-14T08:55:52;3.03;;;0.50;;
24216;SDS011;12356;49.386;8.688;2023-03-14T08:58:24;2.22;;;0.50;;
24216;SDS011;12356;49.386;8.688;2023-03-14T09:00:54;1.08;;;0.40;;
24216;SDS011;12356;49.386;8.688;2023-03-14T09:03:25;1.48;;;0.50;;
24216;SDS011;12356;49.386;8.688;2023-03-14T09:06:00;0.93;;;0.43;;
24216;SDS011;12356;49.386;8.688;2023-03-14T09:08:33;0.77;;;0.40;;
24216;SDS011;12356;49.386;8.688;2023-03-14T09:11:06;1.45;;;0.40;;
24216;SDS011;12356;49.386;8.688;2023-03-14T09:13:38;1.08;;;0.40;;
24216;SDS011;12356;49.386;8.688;2023-03-14T09:16:09;0.75;;;0.40;;
24216;SDS011;12356;49.386;8.688;2023-03-14T09:18:40;0.40;;;0.40;;
24216;SDS011;12356;49.386;8.688;2023-03-14T09:21:11;0.90;;;0.47;;
24216;SDS011;12356;49.386;8.688;2023-03-14T09:23:41;1.55;;;0.50;;
24216;SDS011;12356;49.386;8.688;2023-03-14T09:26:12;1.13;;;0.70;;
24216;SDS011;12356;49.386;8.688;2023-03-14T09:28:42;2.03;;;0.60;;
24216;SDS011;12356;49.386;8.688;2023-03-14T09:31:13;3.22;;;0.68;;
24216;SDS011;12356;49.386;8.688;2023-03-14T09:33:44;1.95;;;0.50;;
24216;SDS011;12356;49.386;8.688;2023-03-14T09:36:14;1.50;;;0.50;;
24216;SDS011;12356;49.386;8.688;2023-03-14T09:38:45;1.13;;;0.50;;
24216;SDS011;12356;49.386;8.688;2023-03-14T09:41:17;2.42;;;0.50;;
24216;SDS011;12356;49.386;8.688;2023-03-14T09:44:14;1.67;;;0.67;;
24216;SDS011;12356;49.386;8.688;2023-03-14T09:46:51;1.13;;;0.68;;
24216;SDS011;12356;49.386;8.688;2023-03-14T09:49:28;3.70;;;0.60;;
24216;SDS011;12356;49.386;8.688;2023-03-14T09:52:00;2.72;;;0.60;;
24216;SDS011;12356;49.386;8.688;2023-03-14T09:54:35;1.13;;;0.60;;
24216;SDS011;12356;49.386;8.688;2023-03-14T09:57:17;1.15;;;0.47;;
24216;SDS011;12356;49.386;8.688;2023-03-14T09:59:50;1.75;;;0.47;;
24216;SDS011;12356;49.386;8.688;2023-03-14T10:02:24;1.85;;;0.40;;
24216;SDS011;12356;49.386;8.688;2023-03-14T10:05:01;1.05;;;0.40;;
24216;SDS011;12356;49.386;8.688;2023-03-14T10:07:43;1.50;;;0.70;;
24216;SDS011;12356;49.386;8.688;2023-03-14T10:10:24;0.85;;;0.40;;
24216;SDS011;12356;49.386;8.688;2023-03-14T10:13:00;0.82;;;0.45;;
24216;SDS011;12356;49.386;8.688;2023-03-14T10:15:35;1.42;;;0.50;;
24216;SDS011;12356;49.386;8.688;2023-03-14T10:18:11;0.80;;;0.50;;
24216;SDS011;12356;49.386;8.688;2023-03-14T10:20:44;0.70;;;0.57;;
24216;SDS011;12356;49.386;8.688;2023-03-14T10:28:52;0.57;;;0.40;;
24216;SDS011;12356;49.386;8.688;2023-03-14T10:31:26;0.30;;;0.30;;
24216;SDS011;12356;49.386;8.688;2023-03-14T10:34:01;0.50;;;0.30;;
24216;SDS011;12356;49.386;8.688;2023-03-14T10:36:34;1.10;;;0.50;;
24216;SDS011;12356;49.386;8.688;2023-03-14T10:41:55;0.63;;;0.35;;
24216;SDS011;12356;49.386;8.688;2023-03-14T10:44:33;0.57;;;0.40;;
24216;SDS011;12356;49.386;8.688;2023-03-14T10:47:05;0.80;;;0.50;;
24216;SDS011;12356;49.386;8.688;2023-03-14T10:49:36;0.75;;;0.40;;
24216;SDS011;12356;49.386;8.688;2023-03-14T10:52:12;0.77;;;0.40;;
24216;SDS011;12356;49.386;8.688;2023-03-14T10:55:00;1.23;;;0.50;;
24216;SDS011;12356;49.386;8.688;2023-03-14T10:57:35;1.35;;;0.80;;
24216;SDS011;12356;49.386;8.688;2023-03-14T11:00:16;1.30;;;0.82;;
24216;SDS011;12356;49.386;8.688;2023-03-14T11:02:53;1.42;;;0.40;;
24216;SDS011;12356;49.386;8.688;2023-03-14T11:05:44;1.45;;;1.02;;
24216;SDS011;12356;49.386;8.688;2023-03-14T11:08:24;1.23;;;0.70;;
24216;SDS011;12356;49.386;8.688;2023-03-14T11:10:57;2.15;;;0.60;;
24216;SDS011;12356;49.386;8.688;2023-03-14T11:16:27;1.40;;;0.50;;
24216;SDS011;12356;49.386;8.688;2023-03-14T11:24:41;0.88;;;0.40;;
24216;SDS011;12356;49.386;8.688;2023-03-14T11:27:44;1.58;;;0.50;;
24216;SDS011;12356;49.386;8.688;2023-03-14T11:30:29;1.05;;;0.60;;
24216;SDS011;12356;49.386;8.688;2023-03-14T11:33:16;1.83;;;0.88;;
24216;SDS011;12356;49.386;8.688;2023-03-14T11:36:09;3.30;;;1.25;;
24216;SDS011;12356;49.386;8.688;2023-03-14T11:38:46;1.30;;;0.50;;
24216;SDS011;12356;49.386;8.688;2023-03-14T11:41:20;0.63;;;0.40;;
24216;SDS011;12356;49.386;8.688;2023-03-14T11:43:55;1.25;;;0.50;;
24216;SDS011;12356;49.386;8.688;2023-03-14T11:46:28;0.85;;;0.50;;
24216;SDS011;12356;49.386;8.688;2023-03-14T11:49:06;1.48;;;0.50;;
24216;SDS011;12356;49.386;8.688;2023-03-14T11:51:56;1.33;;;0.63;;
24216;SDS011;12356;49.386;8.688;2023-03-14T11:57:40;1.58;;;0.90;;
24216;SDS011;12356;49.386;8.688;2023-03-14T12:08:19;1.20;;;1.10;;
24216;SDS011;12356;49.386;8.688;2023-03-14T12:11:32;0.88;;;0.70;;
24216;SDS011;12356;49.386;8.688;2023-03-14T12:14:22;1.10;;;0.98;;
24216;SDS011;12356;49.386;8.688;2023-03-14T12:19:37;0.95;;;0.65;;
24216;SDS011;12356;49.386;8.688;2023-03-14T12:22:23;1.75;;;0.90;;
24216;SDS011;12356;49.386;8.688;2023-03-14T12:24:59;0.77;;;0.60;;
24216;SDS011;12356;49.386;8.688;2023-03-14T12:27:43;0.50;;;0.50;;
24216;SDS011;12356;49.386;8.688;2023-03-14T12:30:17;0.73;;;0.60;;
24216;SDS011;12356;49.386;8.688;2023-03-14T12:35:40;0.90;;;0.90;;
24216;SDS011;12356;49.386;8.688;2023-03-14T12:43:28;1.63;;;1.00;;
24216;SDS011;12356;49.386;8.688;2023-03-14T12:48:55;0.73;;;0.65;;
24216;SDS011;12356;49.386;8.688;2023-03-14T12:51:36;1.00;;;0.80;;
24216;SDS011;12356;49.386;8.688;2023-03-14T13:05:56;0.95;;;0.90;;
24216;SDS011;12356;49.386;8.688;2023-03-14T13:08:36;1.80;;;0.95;;
24216;SDS011;12356;49.386;8.688;2023-03-14T13:11:16;2.00;;;1.20;;
24216;SDS011;12356;49.386;8.688;2023-03-14T13:13:49;1.77;;;1.10;;
24216;SDS011;12356;49.386;8.688;2023-03-14T13:16:25;1.73;;;0.90;;
24216;SDS011;12356;49.386;8.688;2023-03-14T13:18:59;1.50;;;1.00;;
24216;SDS011;12356;49.386;8.688;2023-03-14T13:21:36;2.20;;;1.20;;
24216;SDS011;12356;49.386;8.688;2023-03-14T13:24:20;1.50;;;1.10;;
24216;SDS011;12356;49.386;8.688;2023-03-14T13:26:53;3.38;;;1.10;;
24216;SDS011;12356;49.386;8.688;2023-03-14T13:32:01;3.20;;;1.15;;
24216;SDS011;12356;49.386;8.688;2023-03-14T13:34:43;2.17;;;1.10;;
24216;SDS011;12356;49.386;8.688;2023-03-14T13:37:17;4.13;;;1.00;;
24216;SDS011;12356;49.386;8.688;2023-03-14T13:39:51;4.45;;;0.95;;
24216;SDS011;12356;49.386;8.688;2023-03-14T13:42:26;2.88;;;1.05;;
24216;SDS011;12356;49.386;8.688;2023-03-14T13:44:58;1.52;;;1.00;;
24216;SDS011;12356;49.386;8.688;2023-03-14T13:47:30;2.00;;;1.10;;
24216;SDS011;12356;49.386;8.688;2023-03-14T13:50:00;2.47;;;1.10;;
24216;SDS011;12356;49.386;8.688;2023-03-14T13:52:37;2.10;;;1.00;;
24216;SDS011;12356;49.386;8.688;2023-03-14T13:55:15;3.38;;;1.33;;
24216;SDS011;12356;49.386;8.688;2023-03-14T13:57:48;2.00;;;1.00;;
24216;SDS011;12356;49.386;8.688;2023-03-14T14:00:25;2.55;;;1.00;;
24216;SDS011;12356;49.386;8.688;2023-03-14T14:02:57;3.95;;;1.05;;
24216;SDS011;12356;49.386;8.688;2023-03-14T14:05:29;1.42;;;0.73;;
24216;SDS011;12356;49.386;8.688;2023-03-14T14:08:02;1.65;;;0.73;;
24216;SDS011;12356;49.386;8.688;2023-03-14T14:10:35;5.38;;;0.90;;
24216;SDS011;12356;49.386;8.688;2023-03-14T14:13:11;3.78;;;0.80;;
24216;SDS011;12356;49.386;8.688;2023-03-14T14:15:49;2.35;;;0.73;;
24216;SDS011;12356;49.386;8.688;2023-03-14T14:18:23;2.80;;;0.80;;
24216;SDS011;12356;49.386;8.688;2023-03-14T14:20:58;2.25;;;0.70;;
24216;SDS011;12356;49.386;8.688;2023-03-14T14:23:29;2.03;;;0.77;;
24216;SDS011;12356;49.386;8.688;2023-03-14T14:26:01;1.90;;;0.70;;
24216;SDS011;12356;49.386;8.688;2023-03-14T14:28:36;3.00;;;0.68;;
24216;SDS011;12356;49.386;8.688;2023-03-14T14:33:45;3.35;;;1.10;;
24216;SDS011;12356;49.386;8.688;2023-03-14T14:39:13;3.80;;;0.80;;
24216;SDS011;12356;49.386;8.688;2023-03-14T14:41:50;4.28;;;0.57;;
24216;SDS011;12356;49.386;8.688;2023-03-14T14:44:29;2.13;;;0.65;;
24216;SDS011;12356;49.386;8.688;2023-03-14T14:47:02;1.48;;;0.60;;
24216;SDS011;12356;49.386;8.688;2023-03-14T14:49:33;1.60;;;0.60;;
24216;SDS011;12356;49.386;8.688;2023-03-14T14:52:08;2.78;;;0.68;;
24216;SDS011;12356;49.386;8.688;2023-03-14T14:54:46;1.67;;;0.80;;
24216;SDS011;12356;49.386;8.688;2023-03-14T14:57:23;2.13;;;0.70;;
24216;SDS011;12356;49.386;8.688;2023-03-14T15:00:06;2.40;;;0.70;;
24216;SDS011;12356;49.386;8.688;2023-03-14T15:02:45;2.97;;;0.60;;
24216;SDS011;12356;49.386;8.688;2023-03-14T15:05:24;3.08;;;0.63;;
24216;SDS011;12356;49.386;8.688;2023-03-14T15:07:56;2.90;;;0.88;;
24216;SDS011;12356;49.386;8.688;2023-03-14T15:10:27;2.88;;;0.70;;
24216;SDS011;12356;49.386;8.688;2023-03-14T15:12:58;1.80;;;0.70;;
24216;SDS011;12356;49.386;8.688;2023-03-14T15:15:28;1.08;;;0.70;;
24216;SDS011;12356;49.386;8.688;2023-03-14T15:17:59;2.25;;;0.88;;
24216;SDS011;12356;49.386;8.688;2023-03-14T15:20:30;2.85;;;0.80;;
24216;SDS011;12356;49.386;8.688;2023-03-14T15:23:01;1.92;;;0.82;;
24216;SDS011;12356;49.386;8.688;2023-03-14T15:25:31;2.53;;;0.60;;
24216;SDS011;12356;49.386;8.688;2023-03-14T15:28:02;1.30;;;0.60;;
24216;SDS011;12356;49.386;8.688;2023-03-14T15:30:32;2.53;;;0.80;;
24216;SDS011;12356;49.386;8.688;2023-03-14T15:33:03;1.50;;;0.63;;
24216;SDS011;12356;49.386;8.688;2023-03-14T15:35:37;1.88;;;0.60;;
24216;SDS011;12356;49.386;8.688;2023-03-14T15:38:12;2.30;;;0.77;;
24216;SDS011;12356;49.386;8.688;2023-03-14T15:40:45;2.00;;;0.90;;
24216;SDS011;12356;49.386;8.688;2023-03-14T15:43:15;5.55;;;1.88;;
24216;SDS011;12356;49.386;8.688;2023-03-14T15:45:47;4.07;;;1.55;;
24216;SDS011;12356;49.386;8.688;2023-03-14T15:48:18;6.00;;;2.10;;
24216;SDS011;12356;49.386;8.688;2023-03-14T15:50:50;2.55;;;0.70;;
24216;SDS011;12356;49.386;8.688;2023-03-14T15:53:21;4.10;;;1.40;;
24216;SDS011;12356;49.386;8.688;2023-03-14T15:55:52;1.67;;;0.60;;
24216;SDS011;12356;49.386;8.688;2023-03-14T15:58:22;3.55;;;1.00;;
24216;SDS011;12356;49.386;8.688;2023-03-14T16:00:53;2.38;;;0.70;;
24216;SDS011;12356;49.386;8.688;2023-03-14T16:03:23;2.22;;;1.13;;
24216;SDS011;12356;49.386;8.688;2023-03-14T16:05:54;2.70;;;0.70;;
24216;SDS011;12356;49.386;8.688;2023-03-14T16:08:25;2.40;;;0.80;;
24216;SDS011;12356;49.386;8.688;2023-03-14T16:10:58;3.13;;;0.70;;
24216;SDS011;12356;49.386;8.688;2023-03-14T16:13:29;2.30;;;0.65;;
24216;SDS011;12356;49.386;8.688;2023-03-14T16:16:01;3.13;;;1.20;;
24216;SDS011;12356;49.386;8.688;2023-03-14T16:18:34;3.78;;;1.50;;
24216;SDS011;12356;49.386;8.688;2023-03-14T16:23:44;2.20;;;0.85;;
24216;SDS011;12356;49.386;8.688;2023-03-14T16:26:16;6.00;;;2.70;;
24216;SDS011;12356;49.386;8.688;2023-03-14T16:28:48;5.50;;;2.42;;
24216;SDS011;12356;49.386;8.688;2023-03-14T16:31:18;8.85;;;2.53;;
24216;SDS011;12356;49.386;8.688;2023-03-14T16:33:53;4.57;;;1.90;;
24216;SDS011;12356;49.386;8.688;2023-03-14T16:36:24;3.03;;;1.13;;
24216;SDS011;12356;49.386;8.688;2023-03-14T16:38:54;4.20;;;1.27;;
24216;SDS011;12356;49.386;8.688;2023-03-14T16:41:25;4.93;;;1.70;;
24216;SDS011;12356;49.386;8.688;2023-03-14T16:44:00;5.57;;;1.90;;